Time;durP1;ratioP1;P1;durP2;ratioP2;P2;SDS_P1;SDS_P2;PMS_P1;PMS_P2;Temp;Humidity;BMP_temperature;BMP_pressure;BME280_temperature;BME280_humidity;BME280_pressure;Samples;Min_cycle;Max_cycle;Signal;HPM_P1;HPM_P2
2022/07/02 00:01:06;;;;;;;6.57;4.60;;;23.40;73.90;;;;;;5008118;28;20251;-73
2022/07/02 00:03:33;;;;;;;4.40;4.00;;;23.30;73.30;;;;;;5015336;28;20212;-73
2022/07/02 00:06:01;;;;;;;4.75;4.45;;;23.30;74.10;;;;;;5002397;28;20975;-72
2022/07/02 00:08:28;;;;;;;5.35;4.85;;;23.30;75.00;;;;;;5002418;28;20678;-72
2022/07/02 00:10:55;;;;;;;4.75;4.35;;;23.30;73.50;;;;;;5012693;28;20647;-72
2022/07/02 00:13:24;;;;;;;4.18;4.05;;;23.30;73.30;;;;;;5015514;28;20181;-72
2022/07/02 00:15:50;;;;;;;3.97;3.88;;;23.20;73.50;;;;;;5016492;28;20184;-72
2022/07/02 00:18:16;;;;;;;5.65;4.65;;;23.20;73.60;;;;;;5007482;28;20193;-72
2022/07/02 00:20:43;;;;;;;4.32;4.00;;;23.20;73.80;;;;;;5015295;28;20235;-73
2022/07/02 00:23:10;;;;;;;4.72;4.43;;;23.20;74.60;;;;;;5012030;28;20192;-72
2022/07/02 00:25:41;;;;;;;4.88;4.57;;;23.20;75.10;;;;;;5009611;28;20721;-72
2022/07/02 00:28:07;;;;;;;4.40;4.10;;;23.20;74.70;;;;;;5012948;28;20181;-72
2022/07/02 00:30:34;;;;;;;4.65;4.35;;;23.20;74.90;;;;;;5011443;28;20188;-72
2022/07/02 00:33:02;;;;;;;4.80;4.50;;;23.10;73.90;;;;;;5000481;28;20185;-72
2022/07/02 00:35:29;;;;;;;4.53;4.25;;;23.10;73.60;;;;;;5000725;28;20189;-72
2022/07/02 00:37:56;;;;;;;5.07;4.25;;;23.10;74.20;;;;;;5009078;28;20188;-73
2022/07/02 00:40:23;;;;;;;4.70;4.30;;;23.10;75.40;;;;;;5009503;28;20187;-72
2022/07/02 00:42:49;;;;;;;4.20;3.97;;;23.10;74.90;;;;;;5012769;28;20849;-72
2022/07/02 00:45:18;;;;;;;4.60;4.40;;;23.10;74.50;;;;;;5002451;28;20273;-72
2022/07/02 00:47:43;;;;;;;4.75;4.35;;;23.10;74.80;;;;;;4997911;28;20213;-72
2022/07/02 00:50:10;;;;;;;5.05;4.75;;;23.00;74.40;;;;;;5013842;28;20187;-72
2022/07/02 00:52:36;;;;;;;4.30;4.00;;;23.00;74.80;;;;;;5004842;28;20191;-72
2022/07/02 00:55:02;;;;;;;4.18;3.97;;;23.00;74.90;;;;;;5014116;28;20639;-72
2022/07/02 00:57:28;;;;;;;4.22;3.92;;;23.00;76.00;;;;;;5007205;28;20314;-71
2022/07/02 00:59:54;;;;;;;4.97;4.50;;;23.00;75.40;;;;;;5014043;28;20992;-72
2022/07/02 01:02:23;;;;;;;3.95;3.65;;;23.00;75.80;;;;;;5006245;28;20176;-72
2022/07/02 01:04:50;;;;;;;5.82;3.95;;;23.00;75.10;;;;;;5006631;28;20181;-71
2022/07/02 01:07:19;;;;;;;4.57;4.35;;;23.00;75.70;;;;;;5004861;28;20329;-72
2022/07/02 01:12:34;;;;;;;4.50;4.20;;;23.00;75.70;;;;;;5007521;28;20231;-73
2022/07/02 01:15:00;;;;;;;5.25;4.95;;;23.00;76.70;;;;;;5006291;28;20292;-71
2022/07/02 01:17:26;;;;;;;5.25;4.65;;;23.00;77.70;;;;;;5005155;28;20259;-73
2022/07/02 01:19:52;;;;;;;4.75;4.55;;;23.00;77.60;;;;;;5007292;28;20239;-72
2022/07/02 01:22:31;;;;;;;4.75;4.35;;;23.00;77.80;;;;;;5012034;28;20589;-72
2022/07/02 01:24:56;;;;;;;5.40;4.90;;;22.90;77.70;;;;;;5015431;28;20275;-72
2022/07/02 01:27:23;;;;;;;4.95;4.75;;;22.90;78.50;;;;;;5007816;28;20292;-71
2022/07/02 01:29:49;;;;;;;4.95;4.63;;;22.80;78.00;;;;;;5006346;28;20180;-72
2022/07/02 01:32:16;;;;;;;4.90;4.53;;;22.70;76.80;;;;;;5007468;28;20267;-74
2022/07/02 01:34:45;;;;;;;4.72;4.53;;;22.70;77.70;;;;;;5005670;28;20907;-73
2022/07/02 01:37:14;;;;;;;4.35;4.15;;;22.70;77.30;;;;;;5005340;28;20177;-74
2022/07/02 01:39:41;;;;;;;5.57;5.10;;;22.70;77.60;;;;;;5004554;28;20185;-74
2022/07/02 01:42:08;;;;;;;4.60;4.32;;;22.70;78.20;;;;;;5011855;28;20192;-73
2022/07/02 01:44:35;;;;;;;4.20;4.00;;;22.70;78.40;;;;;;5007714;28;20236;-74
2022/07/02 01:47:03;;;;;;;4.13;3.80;;;22.60;77.70;;;;;;5001661;28;20213;-72
2022/07/02 01:49:29;;;;;;;4.70;4.40;;;22.60;77.30;;;;;;5019749;28;20189;-72
2022/07/02 01:51:54;;;;;;;3.60;3.42;;;22.60;77.60;;;;;;5016728;28;20192;-72
2022/07/02 01:54:20;;;;;;;4.47;4.25;;;22.60;78.10;;;;;;5010301;28;20185;-72
2022/07/02 01:56:46;;;;;;;4.25;4.03;;;22.60;78.50;;;;;;5018224;28;20192;-73
2022/07/02 01:59:13;;;;;;;4.28;3.97;;;22.60;78.20;;;;;;5006550;28;20208;-72
2022/07/02 02:01:40;;;;;;;4.20;3.97;;;22.50;77.60;;;;;;5005843;28;20181;-72
2022/07/02 02:04:05;;;;;;;4.35;4.20;;;22.50;78.60;;;;;;5013311;28;20259;-73
2022/07/02 02:06:31;;;;;;;4.43;4.22;;;22.50;78.60;;;;;;5003577;28;20221;-73
2022/07/02 02:08:57;;;;;;;4.13;3.83;;;22.50;78.80;;;;;;5012152;28;20647;-73
2022/07/02 02:11:23;;;;;;;5.07;4.78;;;22.50;78.80;;;;;;5008569;28;20185;-75
2022/07/02 02:13:51;;;;;;;4.97;4.68;;;22.40;77.50;;;;;;5004964;28;20195;-73
2022/07/02 02:16:16;;;;;;;4.93;4.43;;;22.30;76.90;;;;;;5003963;28;20208;-73
2022/07/02 02:18:42;;;;;;;4.70;4.40;;;22.30;77.40;;;;;;5005988;28;20564;-72
2022/07/02 02:21:08;;;;;;;4.15;3.97;;;22.30;77.80;;;;;;5015335;28;20216;-72
2022/07/02 02:23:33;;;;;;;5.03;4.72;;;22.20;76.60;;;;;;5009861;28;20556;-73
2022/07/02 02:25:59;;;;;;;5.18;4.93;;;22.20;77.00;;;;;;4998815;28;20243;-73
2022/07/02 02:28:25;;;;;;;6.80;4.53;;;22.20;76.50;;;;;;5019546;28;20285;-74
2022/07/02 02:30:51;;;;;;;7.05;4.07;;;22.20;77.20;;;;;;5014895;28;20173;-73
2022/07/02 02:33:17;;;;;;;5.50;5.03;;;22.10;77.40;;;;;;5005259;28;20188;-74
2022/07/02 02:35:43;;;;;;;5.35;4.85;;;22.10;77.70;;;;;;5004493;28;20913;-73
2022/07/02 02:38:08;;;;;;;4.90;4.57;;;22.10;78.30;;;;;;5005934;28;20781;-73
2022/07/02 02:40:34;;;;;;;5.45;4.82;;;22.10;78.00;;;;;;5006509;28;20190;-73
2022/07/02 02:43:00;;;;;;;5.35;4.15;;;22.10;78.80;;;;;;4995413;28;20540;-73
2022/07/02 02:45:25;;;;;;;4.43;4.15;;;22.10;78.60;;;;;;5005535;28;20260;-73
2022/07/02 02:47:51;;;;;;;4.18;3.88;;;22.10;79.20;;;;;;5005105;28;20181;-73
2022/07/02 02:50:17;;;;;;;5.05;4.50;;;22.00;78.80;;;;;;4999629;28;20186;-72
2022/07/02 02:52:42;;;;;;;6.53;4.55;;;22.00;79.40;;;;;;5002214;28;20181;-73
2022/07/02 02:55:08;;;;;;;7.30;4.70;;;22.00;79.70;;;;;;5011723;28;20658;-73
2022/07/02 02:57:34;;;;;;;4.45;4.15;;;22.00;78.90;;;;;;5019439;28;20192;-72
2022/07/02 03:00:00;;;;;;;5.68;5.18;;;21.90;80.50;;;;;;5006100;28;20271;-72
2022/07/02 03:02:26;;;;;;;6.97;5.13;;;21.90;80.00;;;;;;5015554;28;20216;-73
2022/07/02 03:04:51;;;;;;;4.72;4.28;;;21.80;78.90;;;;;;5016806;28;20580;-73
2022/07/02 03:07:17;;;;;;;4.68;4.47;;;21.70;79.20;;;;;;5007932;28;20208;-72
2022/07/02 03:09:43;;;;;;;5.15;4.47;;;21.70;79.00;;;;;;5007311;28;20188;-71
2022/07/02 03:12:09;;;;;;;4.70;4.20;;;21.70;78.70;;;;;;5010616;28;20181;-72
2022/07/02 03:14:35;;;;;;;4.13;3.92;;;21.70;78.60;;;;;;5015137;28;20327;-72
2022/07/02 03:17:00;;;;;;;6.65;4.72;;;21.60;78.70;;;;;;5004127;28;20718;-72
2022/07/02 03:19:26;;;;;;;4.68;4.32;;;21.70;78.50;;;;;;5011968;28;20285;-73
2022/07/02 03:21:52;;;;;;;4.82;4.40;;;21.60;78.90;;;;;;5003752;28;20196;-72
2022/07/02 03:24:18;;;;;;;4.82;4.50;;;21.70;79.40;;;;;;5010167;28;20684;-73
2022/07/02 03:26:43;;;;;;;6.93;4.53;;;21.70;80.00;;;;;;5003643;28;20221;-73
2022/07/02 03:29:09;;;;;;;4.15;3.88;;;21.70;79.70;;;;;;5010378;28;20193;-73
2022/07/02 03:31:35;;;;;;;4.43;3.97;;;21.70;80.00;;;;;;5011453;28;20188;-74
2022/07/02 03:34:00;;;;;;;4.53;4.30;;;21.70;80.30;;;;;;5019419;28;20199;-72
2022/07/02 03:36:26;;;;;;;4.72;4.50;;;21.70;80.10;;;;;;5013162;28;20583;-72
2022/07/02 03:38:52;;;;;;;4.82;4.53;;;21.70;79.70;;;;;;5018051;28;20188;-72
2022/07/02 03:41:17;;;;;;;5.22;4.85;;;21.70;79.50;;;;;;5011908;28;20189;-72
2022/07/02 03:43:43;;;;;;;5.03;4.53;;;21.70;80.00;;;;;;5007715;28;20186;-72
2022/07/02 03:46:09;;;;;;;4.88;4.57;;;21.70;80.20;;;;;;5011706;28;20219;-72
2022/07/02 03:48:35;;;;;;;4.80;4.43;;;21.70;80.40;;;;;;5007301;28;20223;-72
2022/07/02 03:51:00;;;;;;;5.70;4.72;;;21.70;79.60;;;;;;5007641;28;20189;-72
2022/07/02 03:53:26;;;;;;;3.83;3.72;;;21.70;79.50;;;;;;5015725;28;20373;-72
2022/07/02 03:55:52;;;;;;;5.97;4.60;;;21.70;80.40;;;;;;5012770;28;20246;-72
2022/07/02 03:58:17;;;;;;;4.65;4.25;;;21.70;80.30;;;;;;5004019;28;20243;-72
2022/07/02 04:00:43;;;;;;;4.45;4.22;;;21.80;79.80;;;;;;5003118;28;20674;-72
2022/07/02 04:03:09;;;;;;;4.75;4.30;;;21.80;80.40;;;;;;5009831;28;20180;-73
2022/07/02 04:05:34;;;;;;;5.07;4.60;;;21.80;79.70;;;;;;5012784;28;20192;-72
2022/07/02 04:08:00;;;;;;;4.93;4.63;;;21.80;80.10;;;;;;4997778;28;20181;-72
2022/07/02 04:10:26;;;;;;;5.13;4.50;;;21.90;81.10;;;;;;4999532;28;20185;-72
2022/07/02 04:12:51;;;;;;;6.13;4.45;;;21.90;80.80;;;;;;5002487;28;20178;-72
2022/07/02 04:15:17;;;;;;;4.75;4.55;;;21.90;80.00;;;;;;4994329;28;21008;-71
2022/07/02 04:17:43;;;;;;;4.88;4.63;;;21.90;80.10;;;;;;4989044;28;20177;-72
2022/07/02 04:20:09;;;;;;;6.32;4.78;;;22.00;80.50;;;;;;4986466;28;20192;-72
2022/07/02 04:22:34;;;;;;;4.78;4.47;;;22.00;79.40;;;;;;4985339;28;20604;-72
2022/07/02 04:25:00;;;;;;;4.55;4.25;;;22.00;80.80;;;;;;4983283;28;20196;-72
2022/07/02 04:27:26;;;;;;;5.38;4.93;;;22.10;79.90;;;;;;4990125;28;20217;-72
2022/07/02 04:29:52;;;;;;;4.75;4.45;;;22.10;79.80;;;;;;5006475;28;20184;-71
2022/07/02 04:32:17;;;;;;;4.53;4.22;;;22.10;79.20;;;;;;5026545;28;20207;-72
2022/07/02 04:34:43;;;;;;;4.57;4.38;;;22.10;79.60;;;;;;5024375;28;20203;-72
2022/07/02 04:37:10;;;;;;;4.63;4.35;;;22.20;80.60;;;;;;5011498;28;20324;-72
2022/07/02 04:39:36;;;;;;;5.35;4.95;;;22.20;80.30;;;;;;5014308;28;20270;-72
2022/07/02 04:42:02;;;;;;;5.03;4.72;;;22.30;79.60;;;;;;5005280;28;20208;-72
2022/07/02 04:44:28;;;;;;;5.22;4.80;;;22.30;79.70;;;;;;5009902;28;20176;-72
2022/07/02 04:46:55;;;;;;;4.57;4.22;;;22.30;79.30;;;;;;5004380;28;20216;-72
2022/07/02 04:49:21;;;;;;;5.03;4.82;;;22.40;79.80;;;;;;4992019;28;20673;-72
2022/07/02 04:51:46;;;;;;;5.35;5.03;;;22.40;80.20;;;;;;5001153;28;20176;-71
2022/07/02 04:54:12;;;;;;;4.63;4.32;;;22.50;79.90;;;;;;5006716;28;20196;-72
2022/07/02 04:56:38;;;;;;;4.90;4.63;;;22.50;80.00;;;;;;5008003;28;20192;-72
2022/07/02 04:59:03;;;;;;;5.72;5.40;;;22.50;79.30;;;;;;5009500;28;20263;-71
2022/07/02 05:01:29;;;;;;;4.60;4.32;;;22.60;80.30;;;;;;5016145;28;20688;-72
2022/07/02 05:03:55;;;;;;;4.40;4.20;;;22.60;80.20;;;;;;5008769;28;20181;-72
2022/07/02 05:06:22;;;;;;;7.47;5.50;;;22.60;80.10;;;;;;5008181;28;20223;-72
2022/07/02 05:08:48;;;;;;;4.97;4.68;;;22.70;79.50;;;;;;5007661;28;20181;-73
2022/07/02 05:11:18;;;;;;;4.82;4.50;;;22.70;79.30;;;;;;5009198;28;20189;-72
2022/07/02 05:13:44;;;;;;;6.40;5.65;;;22.80;79.60;;;;;;5006571;28;20220;-72
2022/07/02 05:16:09;;;;;;;4.63;4.22;;;22.80;80.00;;;;;;5004520;28;20644;-74
2022/07/02 05:18:35;;;;;;;8.13;5.05;;;22.90;79.90;;;;;;5010136;28;20188;-72
2022/07/02 05:21:01;;;;;;;5.47;5.15;;;22.90;79.80;;;;;;5005981;28;20188;-72
2022/07/02 05:23:26;;;;;;;5.25;4.90;;;22.90;79.30;;;;;;5005004;28;20747;-74
2022/07/02 05:25:52;;;;;;;5.45;5.07;;;23.00;79.70;;;;;;5008321;28;20216;-75
2022/07/02 05:28:19;;;;;;;4.70;4.50;;;23.00;80.20;;;;;;5007178;28;20189;-71
2022/07/02 05:30:45;;;;;;;4.95;4.65;;;23.10;79.30;;;;;;5008149;28;20610;-71
2022/07/02 05:33:11;;;;;;;7.70;7.07;;;;;;;;;;5007292;28;20192;-70
2022/07/02 05:35:37;;;;;;;4.20;4.00;;;23.20;79.10;;;;;;5008731;28;20181;-71
2022/07/02 05:38:03;;;;;;;4.45;4.07;;;23.20;79.10;;;;;;5005894;28;20732;-72
2022/07/02 05:40:28;;;;;;;5.70;4.95;;;23.30;79.30;;;;;;5005003;28;20748;-69
2022/07/02 05:42:54;;;;;;;4.72;4.45;;;23.30;79.00;;;;;;5001161;28;20303;-70
2022/07/02 05:45:20;;;;;;;5.53;5.07;;;23.40;79.10;;;;;;5004369;28;20195;-69
2022/07/02 05:47:45;;;;;;;4.65;4.45;;;23.40;78.90;;;;;;5005036;28;20296;-69
2022/07/02 05:50:11;;;;;;;7.10;4.43;;;23.50;78.80;;;;;;5004153;28;20192;-70
2022/07/02 05:52:37;;;;;;;4.55;4.30;;;23.50;78.70;;;;;;5005841;28;20215;-72
2022/07/02 05:55:03;;;;;;;4.53;4.22;;;23.60;78.90;;;;;;5005146;28;20185;-72
2022/07/02 05:57:29;;;;;;;6.50;4.13;;;23.70;78.30;;;;;;5005973;28;20195;-72
2022/07/02 05:59:55;;;;;;;4.65;4.45;;;23.70;78.50;;;;;;5008415;28;20195;-72
2022/07/02 06:02:21;;;;;;;4.78;4.38;;;23.80;78.40;;;;;;5003346;28;20216;-70
2022/07/02 06:04:47;;;;;;;4.60;4.22;;;23.80;78.30;;;;;;5002295;28;20181;-69
2022/07/02 06:09:58;;;;;;;4.32;4.15;;;23.90;78.40;;;;;;4999115;28;20207;-73
2022/07/02 06:12:23;;;;;;;4.13;3.92;;;23.90;78.10;;;;;;5002438;28;20189;-73
2022/07/02 06:14:49;;;;;;;4.43;4.13;;;24.00;78.20;;;;;;4999185;28;20196;-70
2022/07/02 06:17:15;;;;;;;4.03;3.83;;;24.00;78.10;;;;;;5001285;28;20196;-69
2022/07/02 06:19:42;;;;;;;4.63;4.40;;;24.10;77.90;;;;;;5006305;28;20234;-69
2022/07/02 06:22:08;;;;;;;4.50;4.25;;;24.20;77.90;;;;;;5011999;28;20181;-69
2022/07/02 06:24:34;;;;;;;4.95;4.63;;;24.20;77.60;;;;;;5016182;28;20210;-69
2022/07/02 06:27:00;;;;;;;5.70;5.15;;;24.30;78.50;;;;;;5007980;28;20339;-69
2022/07/02 06:29:26;;;;;;;4.25;4.05;;;24.40;77.10;;;;;;4994341;28;20701;-69
2022/07/02 06:31:51;;;;;;;4.95;4.65;;;24.40;78.40;;;;;;5000806;28;20181;-69
2022/07/02 06:34:17;;;;;;;4.97;4.78;;;24.50;77.20;;;;;;5004285;28;20201;-68
2022/07/02 06:36:43;;;;;;;5.30;4.90;;;24.50;76.90;;;;;;4995526;28;20195;-68
2022/07/02 06:39:09;;;;;;;4.85;4.50;;;24.60;77.90;;;;;;5005424;28;20177;-68
2022/07/02 06:44:19;;;;;;;4.50;4.40;;;24.70;76.90;;;;;;5005735;28;20582;-69
2022/07/02 06:46:45;;;;;;;4.25;4.10;;;24.80;76.70;;;;;;5004976;28;20213;-69
2022/07/02 06:49:10;;;;;;;5.53;4.55;;;24.90;76.70;;;;;;5007271;28;20267;-69
2022/07/02 06:51:36;;;;;;;4.57;4.32;;;24.90;76.70;;;;;;5004246;28;20185;-68
2022/07/02 06:54:01;;;;;;;4.55;4.25;;;25.00;76.50;;;;;;5007025;28;20202;-70
2022/07/02 06:56:29;;;;;;;4.95;4.65;;;25.10;76.30;;;;;;5002353;28;20197;-68
2022/07/02 06:58:56;;;;;;;6.25;5.22;;;25.10;76.40;;;;;;5005171;28;20177;-70
2022/07/02 07:01:22;;;;;;;5.93;5.43;;;25.20;75.80;;;;;;5006814;28;20193;-70
2022/07/02 07:03:48;;;;;;;6.18;5.25;;;25.20;75.70;;;;;;5003763;28;20189;-69
2022/07/02 07:06:14;;;;;;;5.57;5.18;;;;;;;;;;5009554;28;20251;-69
2022/07/02 07:08:40;;;;;;;5.70;5.25;;;25.40;75.40;;;;;;4998357;28;20193;-70
2022/07/02 07:11:05;;;;;;;5.15;4.85;;;25.40;75.30;;;;;;5001654;28;20239;-69
2022/07/02 07:13:31;;;;;;;6.10;5.65;;;25.50;75.30;;;;;;5002426;28;20729;-68
2022/07/02 07:15:57;;;;;;;7.18;5.05;;;25.50;74.90;;;;;;5005622;28;20246;-69
2022/07/02 07:18:22;;;;;;;6.55;5.22;;;25.60;75.00;;;;;;5001018;28;20226;-69
2022/07/02 07:20:49;;;;;;;5.88;5.57;;;25.70;75.00;;;;;;4997625;28;20919;-69
2022/07/02 07:23:15;;;;;;;8.23;6.25;;;25.80;75.70;;;;;;5017164;28;20190;-70
2022/07/02 07:25:41;;;;;;;6.07;5.75;;;25.90;75.30;;;;;;5025643;28;20878;-69
2022/07/02 07:28:07;;;;;;;5.68;5.38;;;26.00;75.50;;;;;;5025655;28;20176;-69
2022/07/02 07:30:32;;;;;;;6.63;6.13;;;26.00;75.40;;;;;;5021261;28;20189;-68
2022/07/02 07:32:58;;;;;;;5.75;5.15;;;26.20;75.60;;;;;;5003239;28;20264;-69
2022/07/02 07:35:24;;;;;;;5.20;4.90;;;26.20;75.20;;;;;;5002595;28;20675;-70
2022/07/02 07:37:59;;;;;;;5.28;5.05;;;26.30;75.00;;;;;;5003331;28;20185;-69
2022/07/02 07:40:26;;;;;;;5.30;5.00;;;26.40;74.50;;;;;;5001645;28;20192;-69
2022/07/02 07:42:52;;;;;;;6.45;6.05;;;26.50;74.30;;;;;;5003291;28;20197;-68
2022/07/02 07:45:18;;;;;;;5.50;4.95;;;26.60;74.00;;;;;;5003273;28;20195;-69
2022/07/02 07:47:44;;;;;;;4.72;4.50;;;26.60;74.40;;;;;;5007353;28;20235;-70
2022/07/02 07:50:09;;;;;;;6.82;5.75;;;26.70;74.60;;;;;;5024516;28;20259;-69
2022/07/02 07:52:35;;;;;;;5.22;4.82;;;26.80;73.90;;;;;;5005886;28;20192;-69
2022/07/02 07:55:01;;;;;;;5.95;5.55;;;26.90;74.10;;;;;;5003193;28;20633;-69
2022/07/02 07:57:26;;;;;;;6.35;5.88;;;27.00;73.70;;;;;;5002694;28;20192;-68
2022/07/02 07:59:52;;;;;;;6.55;6.03;;;27.00;73.40;;;;;;5003386;28;20181;-69
2022/07/02 08:02:18;;;;;;;6.25;5.65;;;27.10;73.00;;;;;;5002908;28;20263;-68
2022/07/02 08:04:43;;;;;;;6.55;6.10;;;27.20;72.60;;;;;;5001202;28;20193;-69
2022/07/02 08:07:09;;;;;;;6.88;6.28;;;27.30;72.50;;;;;;5010932;28;20220;-69
2022/07/02 08:09:35;;;;;;;6.82;6.32;;;27.30;70.90;;;;;;5012439;28;20536;-68
2022/07/02 08:12:00;;;;;;;11.18;6.43;;;27.30;71.70;;;;;;5011688;28;20180;-69
2022/07/02 08:14:26;;;;;;;6.50;5.88;;;27.40;71.30;;;;;;5011939;28;20192;-69
2022/07/02 08:16:52;;;;;;;5.95;5.60;;;27.60;71.40;;;;;;5009672;28;20189;-68
2022/07/02 08:19:17;;;;;;;7.88;6.68;;;27.60;71.50;;;;;;5015410;28;20239;-69
2022/07/02 08:21:43;;;;;;;6.40;6.00;;;27.70;70.60;;;;;;5010980;28;20409;-68
2022/07/02 08:24:08;;;;;;;6.82;6.43;;;27.80;70.80;;;;;;5011198;28;20181;-68
2022/07/02 08:26:34;;;;;;;6.15;5.85;;;27.90;70.40;;;;;;5013252;28;20716;-69
2022/07/02 08:29:00;;;;;;;6.40;6.03;;;27.90;70.30;;;;;;5012966;28;20283;-69
2022/07/02 08:31:26;;;;;;;6.50;6.00;;;27.90;70.80;;;;;;5008297;28;20184;-68
2022/07/02 08:33:52;;;;;;;6.82;6.15;;;28.00;71.30;;;;;;5015936;28;20206;-69
2022/07/02 08:36:18;;;;;;;7.03;6.40;;;28.10;70.80;;;;;;5002540;28;20211;-68
2022/07/02 08:38:43;;;;;;;5.85;5.47;;;28.10;70.60;;;;;;5000520;28;20216;-68
2022/07/02 08:41:12;;;;;;;6.88;6.28;;;28.20;70.90;;;;;;5001510;28;20567;-69
2022/07/02 08:43:40;;;;;;;6.85;6.35;;;28.30;70.00;;;;;;5000824;28;20576;-69
2022/07/02 08:46:07;;;;;;;7.97;6.07;;;28.40;69.80;;;;;;5000829;28;20212;-70
2022/07/02 08:48:33;;;;;;;8.00;5.90;;;28.60;68.60;;;;;;5000620;28;20314;-68
2022/07/02 08:51:00;;;;;;;6.10;5.70;;;28.60;68.60;;;;;;5001218;28;20181;-69
2022/07/02 08:53:26;;;;;;;6.57;6.10;;;28.70;69.40;;;;;;5001293;28;20256;-69
2022/07/02 08:55:54;;;;;;;6.25;5.90;;;28.80;69.50;;;;;;5000357;28;20737;-68
2022/07/02 08:58:22;;;;;;;6.38;6.00;;;28.80;69.70;;;;;;5000849;28;20177;-69
2022/07/02 09:00:48;;;;;;;5.38;5.07;;;28.90;69.80;;;;;;5002488;28;20185;-68
2022/07/02 09:03:18;;;;;;;7.60;5.93;;;29.10;68.20;;;;;;5010687;28;20187;-69
2022/07/02 09:05:51;;;;;;;4.97;4.78;;;29.20;68.50;;;;;;5007430;28;20188;-67
2022/07/02 09:08:18;;;;;;;6.20;5.68;;;29.30;68.90;;;;;;5009559;28;20193;-69
2022/07/02 09:10:45;;;;;;;4.80;4.60;;;29.40;68.10;;;;;;5010942;28;20382;-69
2022/07/02 09:13:12;;;;;;;5.55;5.22;;;29.50;68.10;;;;;;5010985;28;20263;-68
2022/07/02 09:15:37;;;;;;;4.63;4.43;;;29.60;67.50;;;;;;5009572;28;20215;-69
2022/07/02 09:18:04;;;;;;;5.70;5.20;;;29.70;68.10;;;;;;5012858;28;20193;-69
2022/07/02 09:20:29;;;;;;;5.03;4.82;;;29.80;67.90;;;;;;5014300;28;20242;-69
2022/07/02 09:22:55;;;;;;;5.03;4.82;;;29.90;66.60;;;;;;5015777;28;20729;-68
2022/07/02 09:25:27;;;;;;;5.28;4.97;;;30.00;67.10;;;;;;5009842;28;20173;-69
2022/07/02 09:28:04;;;;;;;5.53;5.10;;;30.10;67.20;;;;;;5013291;28;20217;-69
2022/07/02 09:30:33;;;;;;;5.28;4.97;;;30.20;67.70;;;;;;5010535;28;20203;-69
2022/07/02 09:35:45;;;;;;;6.18;5.63;;;30.50;67.70;;;;;;5010317;28;20192;-69
2022/07/02 09:38:12;;;;;;;6.28;5.72;;;30.60;66.80;;;;;;5012931;28;20211;-69
2022/07/02 09:40:54;;;;;;;6.70;5.65;;;30.70;66.40;;;;;;5014908;28;20180;-69
2022/07/02 09:43:34;;;;;;;5.60;5.32;;;30.80;66.70;;;;;;5014426;28;20239;-69
2022/07/02 09:46:01;;;;;;;5.82;5.32;;;31.00;66.70;;;;;;5012218;28;20539;-69
2022/07/02 09:48:28;;;;;;;8.68;5.82;;;31.10;66.20;;;;;;5013434;28;20280;-70
2022/07/02 09:50:54;;;;;;;6.30;5.80;;;31.30;66.60;;;;;;5016020;28;20184;-69
2022/07/02 09:53:19;;;;;;;5.85;5.38;;;31.40;65.90;;;;;;5014074;28;20181;-69
2022/07/02 09:55:51;;;;;;;5.68;5.18;;;31.50;65.90;;;;;;5014849;28;20172;-69
2022/07/02 09:58:28;;;;;;;5.85;5.45;;;31.60;65.80;;;;;;5016256;28;20187;-69
2022/07/02 10:01:00;;;;;;;6.97;4.88;;;31.80;62.40;;;;;;5005775;28;20577;-69
2022/07/02 10:03:27;;;;;;;5.22;5.03;;;31.90;63.50;;;;;;5010958;28;20272;-69
2022/07/02 10:05:53;;;;;;;4.57;4.28;;;32.10;63.80;;;;;;5011136;28;20188;-69
2022/07/02 10:08:19;;;;;;;4.63;4.50;;;32.20;62.40;;;;;;5014958;28;20639;-70
2022/07/02 10:10:45;;;;;;;4.63;4.30;;;32.40;62.30;;;;;;5007246;28;20188;-70
2022/07/02 10:13:16;;;;;;;4.47;4.18;;;32.40;61.50;;;;;;5010258;28;20588;-70
2022/07/02 10:16:02;;;;;;;5.40;4.88;;;32.50;62.30;;;;;;5012897;28;20180;-68
2022/07/02 10:18:29;;;;;;;4.28;4.00;;;32.60;62.50;;;;;;5004529;28;20195;-69
2022/07/02 10:20:56;;;;;;;4.53;4.43;;;32.90;62.10;;;;;;5002528;28;20673;-69
2022/07/02 10:23:23;;;;;;;4.40;4.22;;;33.00;61.10;;;;;;4994053;28;20184;-69
2022/07/02 10:25:50;;;;;;;4.28;4.18;;;33.10;59.80;;;;;;4999046;28;20578;-69
2022/07/02 10:28:16;;;;;;;4.00;3.83;;;33.30;61.10;;;;;;4998559;28;20202;-69
2022/07/02 10:30:42;;;;;;;4.45;4.25;;;33.50;58.10;;;;;;4990971;28;20173;-69
2022/07/02 10:33:17;;;;;;;4.63;4.22;;;33.60;59.10;;;;;;4990735;28;20200;-68
2022/07/02 10:35:44;;;;;;;4.65;4.38;;;34.00;57.30;;;;;;4998766;28;20649;-69
2022/07/02 10:38:10;;;;;;;4.80;4.55;;;34.10;58.30;;;;;;5002376;28;20188;-68
2022/07/02 10:40:48;;;;;;;5.15;4.85;;;34.40;59.20;;;;;;4998607;28;20575;-69
2022/07/02 10:43:18;;;;;;;4.40;4.20;;;34.50;59.30;;;;;;5004216;28;20227;-69
2022/07/02 10:45:45;;;;;;;4.97;4.70;;;34.70;58.80;;;;;;5001909;28;20184;-69
2022/07/02 10:48:14;;;;;;;4.57;4.40;;;34.90;57.90;;;;;;5002159;28;20185;-69
2022/07/02 10:50:45;;;;;;;4.47;4.20;;;35.30;57.30;;;;;;5002211;28;20265;-68
2022/07/02 10:53:22;;;;;;;4.72;4.30;;;35.70;55.80;;;;;;5003183;28;20263;-69
2022/07/02 10:55:59;;;;;;;4.38;4.28;;;36.10;55.90;;;;;;5003221;28;20266;-69
2022/07/02 10:58:34;;;;;;;4.93;4.40;;;36.10;55.90;;;;;;5001339;28;20191;-70
2022/07/02 11:01:21;;;;;;;5.18;4.70;;;36.60;56.20;;;;;;4997145;28;20738;-69
2022/07/02 11:04:03;;;;;;;5.35;4.65;;;36.70;56.50;;;;;;5003869;28;20673;-69
2022/07/02 11:06:33;;;;;;;4.40;4.18;;;36.40;55.60;;;;;;4999667;28;20659;-68
2022/07/02 11:09:06;;;;;;;4.93;4.60;;;36.20;57.50;;;;;;5003930;28;20181;-69
2022/07/02 11:11:35;;;;;;;4.78;4.47;;;36.00;55.40;;;;;;5003718;28;20243;-70
2022/07/02 11:14:01;;;;;;;4.88;4.45;;;;;;;;;;5003857;28;20690;-69
2022/07/02 11:16:39;;;;;;;4.25;4.05;;;36.60;56.10;;;;;;4998461;28;20184;-69
2022/07/02 11:19:28;;;;;;;4.30;4.10;;;37.10;53.20;;;;;;5014217;28;20204;-69
2022/07/02 11:21:59;;;;;;;4.78;4.57;;;37.20;53.10;;;;;;5004733;28;20192;-69
2022/07/02 11:24:27;;;;;;;5.13;4.82;;;37.70;53.50;;;;;;5004089;28;20199;-69
2022/07/02 11:26:54;;;;;;;4.97;4.78;;;37.80;51.70;;;;;;5004132;28;20235;-69
2022/07/02 11:29:20;;;;;;;4.55;4.45;;;37.60;53.30;;;;;;5013769;28;20187;-68
2022/07/02 11:31:49;;;;;;;4.55;4.43;;;37.30;55.20;;;;;;5001055;28;20850;-71
2022/07/02 11:34:16;;;;;;;5.95;4.40;;;37.10;55.20;;;;;;4998823;28;20223;-69
2022/07/02 11:36:42;;;;;;;5.75;5.43;;;36.80;55.80;;;;;;4998744;28;20701;-69
2022/07/02 11:39:16;;;;;;;4.95;4.38;;;36.50;55.80;;;;;;4993378;28;20192;-70
2022/07/02 11:41:42;;;;;;;6.68;5.25;;;36.10;57.50;;;;;;4992416;28;20189;-69
2022/07/02 11:44:22;;;;;;;4.85;4.53;;;35.80;56.40;;;;;;5005313;28;20189;-69
2022/07/02 11:46:52;;;;;;;4.50;4.40;;;35.60;57.80;;;;;;4997804;28;20204;-69
2022/07/02 11:49:24;;;;;;;5.65;4.82;;;35.40;57.50;;;;;;5000303;28;20214;-69
2022/07/02 11:51:51;;;;;;;5.50;5.20;;;35.00;57.60;;;;;;4994717;28;20189;-69
2022/07/02 11:54:18;;;;;;;5.25;4.95;;;34.80;58.10;;;;;;5002263;28;20267;-69
2022/07/02 11:56:46;;;;;;;4.70;4.50;;;34.50;58.60;;;;;;5000209;28;20727;-70
2022/07/02 11:59:13;;;;;;;5.50;5.28;;;34.50;59.00;;;;;;5005943;28;20185;-69
2022/07/02 12:01:41;;;;;;;5.45;5.15;;;34.40;58.80;;;;;;5010343;28;20647;-70
2022/07/02 12:04:09;;;;;;;5.43;5.13;;;34.20;59.60;;;;;;4999856;28;20192;-70
2022/07/02 12:06:41;;;;;;;4.60;4.20;;;34.10;59.70;;;;;;5000764;28;20235;-70
2022/07/02 12:09:10;;;;;;;4.97;4.78;;;34.00;59.80;;;;;;5001289;28;20190;-72
2022/07/02 12:11:38;;;;;;;15.25;5.13;;;33.60;61.00;;;;;;5005475;28;21044;-69
2022/07/02 12:14:05;;;;;;;5.20;4.78;;;33.30;60.90;;;;;;5007572;28;20181;-69
2022/07/02 12:16:32;;;;;;;6.15;5.15;;;32.70;61.40;;;;;;5015532;28;20226;-69
2022/07/02 12:18:57;;;;;;;5.15;4.88;;;32.20;62.40;;;;;;5013198;28;20180;-69
2022/07/02 12:21:35;;;;;;;5.03;4.63;;;31.60;63.40;;;;;;5003312;28;20243;-69
2022/07/02 12:24:02;;;;;;;6.80;4.55;;;31.30;63.60;;;;;;5005501;28;20278;-69
2022/07/02 12:26:29;;;;;;;6.47;4.53;;;31.00;63.40;;;;;;5002237;28;20667;-69
2022/07/02 12:31:45;;;;;;;4.95;4.57;;;30.50;64.10;;;;;;4998695;28;20799;-70
2022/07/02 12:34:11;;;;;;;4.97;4.38;;;30.10;65.20;;;;;;5002367;28;20231;-68
2022/07/02 12:36:47;;;;;;;4.65;4.38;;;30.00;65.00;;;;;;5000746;28;20216;-69
2022/07/02 12:39:14;;;;;;;4.72;4.43;;;29.80;65.40;;;;;;5002465;28;20184;-70
2022/07/02 12:41:41;;;;;;;5.72;5.43;;;29.70;66.50;;;;;;5003761;28;20191;-69
2022/07/02 12:44:18;;;;;;;11.35;5.30;;;29.60;66.50;;;;;;4995852;28;20510;-69
2022/07/02 12:46:48;;;;;;;4.72;4.45;;;29.50;67.40;;;;;;5002264;28;20212;-69
2022/07/02 12:49:22;;;;;;;4.63;4.43;;;29.50;66.80;;;;;;5004749;28;20196;-69
2022/07/02 12:51:51;;;;;;;4.97;4.72;;;29.40;67.20;;;;;;5004902;28;20184;-69
2022/07/02 12:54:17;;;;;;;4.90;4.60;;;29.40;66.90;;;;;;5000487;28;20193;-70
2022/07/02 12:56:43;;;;;;;5.13;4.82;;;29.40;67.00;;;;;;4999902;28;20189;-69
2022/07/02 12:59:08;;;;;;;5.32;5.03;;;29.50;68.60;;;;;;5014160;28;20189;-71
2022/07/02 13:01:35;;;;;;;4.97;4.72;;;29.50;68.70;;;;;;5006063;28;20185;-69